createdAt,value
2022-09-06T00:00:01.494Z,33.4
2022-09-06T00:02:16.616Z,33.4
2022-09-06T00:04:31.906Z,33.3
2022-09-06T00:06:47.034Z,33.3
2022-09-06T00:09:02.209Z,33.9
2022-09-06T00:11:17.654Z,33.3
2022-09-06T00:13:32.745Z,33.4
2022-09-06T00:15:48.148Z,33.4
2022-09-06T00:18:03.251Z,33.3
2022-09-06T00:20:18.587Z,33.6
2022-09-06T00:22:33.662Z,33.3
2022-09-06T00:27:05.179Z,32.9
2022-09-06T00:29:19.310Z,33.8
2022-09-06T00:31:35.056Z,33.9
2022-09-06T00:33:49.790Z,33.4
2022-09-06T00:36:05.184Z,33.5
2022-09-06T00:38:20.337Z,33.1
2022-09-06T00:40:35.834Z,33.4
2022-09-06T00:42:50.727Z,32.9
2022-09-06T00:45:06.139Z,33.4
2022-09-06T00:47:21.275Z,33.6
2022-09-06T00:49:36.493Z,32.9
2022-09-06T00:51:51.909Z,33.5
2022-09-06T00:54:06.923Z,33.3
2022-09-06T00:56:22.377Z,33.6
2022-09-06T00:58:37.499Z,33.6
2022-09-06T01:00:52.798Z,33.2
2022-09-06T01:03:08.003Z,33.7
2022-09-06T01:05:23.222Z,33.4
2022-09-06T01:07:38.181Z,32.5
2022-09-06T01:09:53.658Z,33.4
2022-09-06T01:12:08.812Z,33
2022-09-06T01:14:23.802Z,33.5
2022-09-06T01:16:38.990Z,33
2022-09-06T01:18:54.274Z,33.1
2022-09-06T01:21:09.656Z,33.5
2022-09-06T01:23:24.803Z,33.4
2022-09-06T01:25:40.209Z,33.1
2022-09-06T01:27:55.362Z,33.4
2022-09-06T01:30:10.749Z,33.4
2022-09-06T01:32:26.476Z,33.8
2022-09-06T01:34:41.122Z,33.2
2022-09-06T01:37:09.247Z,33.5
2022-09-06T01:39:11.835Z,33.1
2022-09-06T01:41:27.007Z,33.4
2022-09-06T01:43:42.169Z,33.6
2022-09-06T01:45:57.589Z,33.2
2022-09-06T01:48:13.069Z,33.3
2022-09-06T01:50:27.794Z,32.8
2022-09-06T01:52:43.020Z,33.1
2022-09-06T01:54:58.495Z,33.3
2022-09-06T01:57:13.495Z,33.1
2022-09-06T01:59:28.493Z,32.4
2022-09-06T02:01:44.013Z,33.4
2022-09-06T02:03:59.134Z,33.1
2022-09-06T02:06:14.859Z,33.3
2022-09-06T02:08:29.820Z,33.4
2022-09-06T02:10:45.173Z,33.4
2022-09-06T02:13:00.287Z,33.1
2022-09-06T02:15:15.638Z,33.4
2022-09-06T02:17:30.825Z,33.6
2022-09-06T02:19:46.027Z,33
2022-09-06T02:22:01.374Z,32.9
2022-09-06T02:24:16.564Z,33.3
2022-09-06T02:26:31.999Z,32.8
2022-09-06T02:28:47.404Z,33.3
2022-09-06T02:31:02.628Z,33.1
2022-09-06T02:33:17.832Z,32.5
2022-09-06T02:35:32.552Z,32.3
2022-09-06T02:37:47.772Z,33.2
2022-09-06T02:40:03.293Z,33.3
2022-09-06T02:42:18.267Z,33.3
2022-09-06T02:44:33.341Z,33.1
2022-09-06T02:46:48.655Z,33
2022-09-06T02:49:03.911Z,32.9
2022-09-06T02:51:19.314Z,33
2022-09-06T02:53:34.389Z,33.1
2022-09-06T02:55:49.872Z,33.3
2022-09-06T02:58:04.954Z,32.9
2022-09-06T03:03:23.174Z,32.6
2022-09-06T03:05:38.349Z,33.4
2022-09-06T03:07:53.673Z,33.3
2022-09-06T03:10:08.852Z,33.2
2022-09-06T03:12:24.072Z,33.3
2022-09-06T03:14:39.289Z,33.2
2022-09-06T03:16:54.486Z,33.3
2022-09-06T03:19:09.674Z,33.1
2022-09-06T03:21:24.776Z,32.8
2022-09-06T03:23:39.733Z,32.4
2022-09-06T03:25:55.013Z,32.5
2022-09-06T03:28:10.275Z,33.2
2022-09-06T03:30:25.255Z,33.3
2022-09-06T03:32:40.030Z,32.3
2022-09-06T03:34:54.959Z,32.6
2022-09-06T03:37:09.892Z,32.6
2022-09-06T03:39:25.225Z,32.6
2022-09-06T03:41:40.550Z,33.1
2022-09-06T03:43:55.111Z,32.7
2022-09-06T03:46:10.074Z,32.3
2022-09-06T03:48:25.050Z,32.7
2022-09-06T03:50:40.788Z,32.3
2022-09-06T03:52:55.428Z,33.1
2022-09-06T03:55:10.504Z,32.2
2022-09-06T03:57:25.531Z,32.9
2022-09-06T03:59:40.369Z,32.4
2022-09-06T04:01:55.413Z,32.5
2022-09-06T04:04:10.699Z,32.4
2022-09-06T04:06:25.905Z,33
2022-09-06T04:08:41.010Z,32.8
2022-09-06T04:10:56.428Z,32.1
2022-09-06T04:13:11.071Z,32.5
2022-09-06T04:15:26.113Z,32.1
2022-09-06T04:17:41.433Z,32.6
2022-09-06T04:19:56.658Z,32.8
2022-09-06T04:22:12.057Z,33
2022-09-06T04:24:27.104Z,32.9
2022-09-06T04:26:42.181Z,33
2022-09-06T04:28:57.203Z,32.3
2022-09-06T04:31:12.400Z,32.9
2022-09-06T04:33:27.662Z,33
2022-09-06T04:35:42.900Z,33.2
2022-09-06T04:37:58.103Z,32.9
2022-09-06T04:40:13.359Z,33
2022-09-06T04:42:28.531Z,33.1
2022-09-06T04:46:58.593Z,32.2
2022-09-06T04:49:13.752Z,32.6
2022-09-06T04:51:29.051Z,33.1
2022-09-06T04:53:44.241Z,33.2
2022-09-06T04:55:59.424Z,32.8
2022-09-06T04:58:14.627Z,33.2
2022-09-06T05:00:29.910Z,33.1
2022-09-06T05:02:45.278Z,33.1
2022-09-06T05:05:00.174Z,33.1
2022-09-06T05:07:15.619Z,32.3
2022-09-06T05:09:30.650Z,32.8
2022-09-06T05:11:46.096Z,33.1
2022-09-06T05:14:01.328Z,33.2
2022-09-06T05:16:17.124Z,33.3
2022-09-06T05:18:31.985Z,33.4
2022-09-06T05:20:47.464Z,33.5
2022-09-06T05:23:02.633Z,33.5
2022-09-06T05:25:17.778Z,33.4
2022-09-06T05:27:33.190Z,33.4
2022-09-06T05:29:48.402Z,33.4
2022-09-06T05:32:04.023Z,33.6
2022-09-06T05:34:18.959Z,33.4
2022-09-06T05:36:34.160Z,32.8
2022-09-06T05:38:49.419Z,33.8
2022-09-06T05:41:04.945Z,33.5
2022-09-06T05:43:20.031Z,33.6
2022-09-06T05:45:35.707Z,33.4
2022-09-06T05:47:50.751Z,33.6
2022-09-06T05:50:05.970Z,33.6
2022-09-06T05:52:21.623Z,33.8
2022-09-06T05:54:36.657Z,33.5
2022-09-06T05:56:52.078Z,33.7
2022-09-06T05:59:07.065Z,33.6
2022-09-06T06:01:22.348Z,33.6
2022-09-06T06:03:37.516Z,33.7
2022-09-06T06:05:52.946Z,33.6
2022-09-06T06:08:08.231Z,33.8
2022-09-06T06:10:23.382Z,33.9
2022-09-06T06:12:38.886Z,33.8
2022-09-06T06:14:54.114Z,33.7
2022-09-06T06:17:09.555Z,34
2022-09-06T06:19:24.678Z,33.5
2022-09-06T06:21:40.178Z,34
2022-09-06T06:23:55.480Z,33.8
2022-09-06T06:26:10.926Z,33.8
2022-09-06T06:28:26.184Z,33.8
2022-09-06T06:30:41.571Z,33.8
2022-09-06T06:32:56.710Z,33.9
2022-09-06T06:35:11.852Z,34.3
2022-09-06T06:37:27.052Z,33.8
2022-09-06T06:39:41.951Z,33.3
2022-09-06T06:41:57.147Z,34.3
2022-09-06T06:44:12.182Z,33.2
2022-09-06T06:46:27.515Z,33.7
2022-09-06T06:48:42.742Z,33.7
2022-09-06T06:50:58.133Z,33.9
2022-09-06T06:53:13.370Z,33.8
2022-09-06T06:55:28.632Z,33.9
2022-09-06T06:57:43.932Z,34.1
2022-09-06T06:59:58.975Z,33.4
2022-09-06T07:02:14.638Z,34.8
2022-09-06T07:04:29.797Z,34.3
2022-09-06T07:07:55.350Z,34.3
2022-09-06T07:10:44.719Z,34.3
2022-09-06T07:13:00.550Z,34.3
2022-09-06T07:15:15.616Z,34.3
2022-09-06T07:17:31.086Z,34.8
2022-09-06T07:20:19.394Z,34.6
2022-09-06T07:26:11.862Z,34.4
2022-09-06T07:29:01.502Z,34.3
2022-09-06T07:34:05.827Z,34
2022-09-06T07:36:21.015Z,34
2022-09-06T07:38:36.274Z,33.9
2022-09-06T07:40:51.489Z,34
2022-09-06T07:43:07.012Z,34.2
2022-09-06T07:45:21.629Z,34
2022-09-06T07:48:10.892Z,32.6
2022-09-06T07:51:15.932Z,31.9
2022-09-06T07:56:38.019Z,32.8
2022-09-06T07:58:52.936Z,32.6
2022-09-06T08:01:07.685Z,33.6
2022-09-06T08:03:22.624Z,33.6
2022-09-06T08:06:23.150Z,33.6
2022-09-06T08:09:47.163Z,34
2022-09-06T08:12:02.064Z,33.8
2022-09-06T08:14:17.102Z,34.1
2022-09-06T08:16:31.751Z,34.1
2022-09-06T08:18:46.520Z,34.1
2022-09-06T08:21:01.410Z,33.8
2022-09-06T08:23:16.174Z,34.1
2022-09-06T08:25:31.026Z,34.2
2022-09-06T08:27:45.884Z,33.9
2022-09-06T08:30:00.762Z,33.9
2022-09-06T08:32:15.497Z,33.8
2022-09-06T08:34:30.420Z,33.9
2022-09-06T08:36:45.219Z,33.8
2022-09-06T08:39:00.107Z,33.9
2022-09-06T08:41:14.912Z,33.6
2022-09-06T08:43:29.704Z,33.8
2022-09-06T08:46:19.123Z,33.8
2022-09-06T08:48:33.782Z,33.8
2022-09-06T08:50:48.735Z,33.8
2022-09-06T08:53:20.835Z,33.9
2022-09-06T08:55:36.851Z,33.9
2022-09-06T08:57:51.002Z,33.5
2022-09-06T09:01:07.894Z,34.8
2022-09-06T09:03:23.043Z,33.6
2022-09-06T09:05:37.491Z,33.6
2022-09-06T09:07:52.372Z,33.6
2022-09-06T09:10:07.091Z,33.7
2022-09-06T09:12:22.007Z,33.4
2022-09-06T09:14:36.755Z,33.5
2022-09-06T09:16:51.651Z,33.4
2022-09-06T09:19:06.912Z,33.1
2022-09-06T09:21:21.312Z,33.4
2022-09-06T09:23:36.215Z,33.9
2022-09-06T09:25:50.971Z,33.6
2022-09-06T09:28:05.949Z,33.9
2022-09-06T09:30:54.979Z,33.5
2022-09-06T09:33:10.333Z,33.9
2022-09-06T09:35:25.214Z,33.7
2022-09-06T09:38:30.023Z,33.7
2022-09-06T09:40:44.849Z,33.4
2022-09-06T09:42:59.530Z,33.6
2022-09-06T09:45:14.429Z,33.4
2022-09-06T09:47:29.199Z,33.6
2022-09-06T09:49:44.034Z,33.6
2022-09-06T09:51:59.230Z,33.9
2022-09-06T09:54:14.095Z,33.6
2022-09-06T09:56:28.893Z,33.8
2022-09-06T09:58:43.815Z,33.6
2022-09-06T10:00:58.702Z,34
2022-09-06T10:03:13.447Z,33.7
2022-09-06T10:06:03.422Z,33.7
2022-09-06T10:08:52.258Z,33.9
2022-09-06T10:11:07.154Z,33.8
2022-09-06T10:13:21.898Z,33.9
2022-09-06T10:15:36.871Z,34.1
2022-09-06T10:17:51.947Z,34
2022-09-06T10:20:06.444Z,33.6
2022-09-06T10:22:21.379Z,33.9
2022-09-06T10:25:25.700Z,33.5
2022-09-06T10:27:50.345Z,33.5
2022-09-06T10:29:59.110Z,33.4
2022-09-06T10:32:13.992Z,33.3
2022-09-06T10:34:29.154Z,33.6
2022-09-06T10:36:43.651Z,33.8
2022-09-06T10:39:03.078Z,33.8
2022-09-06T10:41:13.373Z,33.6
2022-09-06T10:43:28.106Z,33.6
2022-09-06T10:45:43.012Z,33.8
2022-09-06T10:47:57.889Z,33.8
2022-09-06T10:50:12.690Z,33.9
2022-09-06T10:52:27.575Z,33.4
2022-09-06T10:54:42.413Z,33.3
2022-09-06T10:56:57.268Z,33.4
2022-09-06T11:00:50.227Z,33.8
2022-09-06T11:06:43.184Z,33.7
2022-09-06T11:09:46.017Z,34.1
2022-09-06T11:12:00.857Z,33.9
2022-09-06T11:14:15.349Z,33.7
2022-09-06T11:16:30.514Z,33.8
2022-09-06T11:18:44.897Z,33.4
2022-09-06T11:21:00.194Z,33.9
2022-09-06T11:23:14.498Z,33.7
2022-09-06T11:25:29.386Z,33.8
2022-09-06T11:27:44.256Z,33.9
2022-09-06T11:29:59.379Z,33.8
2022-09-06T11:33:01.094Z,34.1
2022-09-06T11:35:16.012Z,33.7
2022-09-06T11:37:30.789Z,34
2022-09-06T11:42:35.281Z,33.8
2022-09-06T11:44:50.104Z,34
2022-09-06T11:47:04.867Z,33.8
2022-09-06T11:49:19.744Z,33.7
2022-09-06T11:51:34.559Z,33.9
2022-09-06T11:53:49.423Z,33.9
2022-09-06T11:56:04.301Z,33.8
2022-09-06T11:58:19.144Z,33.6
2022-09-06T12:00:34.200Z,34.1
2022-09-06T12:02:49.032Z,34
2022-09-06T12:05:40.462Z,33.8
2022-09-06T12:07:55.048Z,33.9
2022-09-06T12:10:09.905Z,33.9
2022-09-06T12:12:24.817Z,33.8
2022-09-06T12:14:39.645Z,33.8
2022-09-06T12:16:54.490Z,33.8
2022-09-06T12:19:09.203Z,33.7
2022-09-06T12:21:24.191Z,33.7
2022-09-06T12:23:38.992Z,34.2
2022-09-06T12:25:54.659Z,34.1
2022-09-06T12:28:08.561Z,33.8
2022-09-06T12:30:23.523Z,34
2022-09-06T12:32:38.324Z,33.7
2022-09-06T12:37:56.324Z,33.9
2022-09-06T12:40:11.222Z,33.9
2022-09-06T12:42:26.180Z,33.9
2022-09-06T12:44:41.028Z,34.1
2022-09-06T12:46:56.180Z,33.7
2022-09-06T12:49:11.006Z,33.7
2022-09-06T12:51:26.121Z,33.4
2022-09-06T12:53:40.921Z,33.5
2022-09-06T12:55:56.719Z,33.8
2022-09-06T12:58:10.849Z,33.5
2022-09-06T13:00:25.668Z,33.7
2022-09-06T13:02:40.766Z,33.6
2022-09-06T13:04:55.531Z,33.6
2022-09-06T13:07:10.863Z,33.9
2022-09-06T13:09:25.488Z,34.1
2022-09-06T13:11:40.521Z,33.5
2022-09-06T13:13:55.386Z,33.9
2022-09-06T13:16:10.514Z,33.8
2022-09-06T13:18:25.383Z,33.6
2022-09-06T13:20:40.122Z,33.6
2022-09-06T13:22:55.205Z,33.8
2022-09-06T13:25:10.171Z,33.4
2022-09-06T13:27:25.282Z,33.3
2022-09-06T13:29:40.095Z,33.3
2022-09-06T13:31:55.174Z,33.4
2022-09-06T13:34:10.056Z,33.5
2022-09-06T13:36:25.112Z,33.4
2022-09-06T13:38:39.882Z,33.4
2022-09-06T13:41:12.749Z,33.3
2022-09-06T13:43:24.256Z,33.5
2022-09-06T13:45:39.029Z,33.8
2022-09-06T13:48:03.351Z,33.6
2022-09-06T13:50:16.431Z,33.8
2022-09-06T13:52:31.150Z,33.3
2022-09-06T13:54:46.010Z,33.5
2022-09-06T13:57:00.932Z,33.6
2022-09-06T13:59:15.784Z,33.5
2022-09-06T14:01:30.628Z,33.8
2022-09-06T14:03:45.387Z,33.6
2022-09-06T14:06:00.301Z,33.8
2022-09-06T14:08:15.102Z,33.3
2022-09-06T14:10:40.532Z,33.4
2022-09-06T14:12:55.296Z,33.1
2022-09-06T14:15:10.134Z,33.2
2022-09-06T14:17:24.972Z,33.3
2022-09-06T14:19:39.827Z,33.7
2022-09-06T14:21:54.649Z,33.6
2022-09-06T14:24:09.528Z,33.3
2022-09-06T14:26:24.620Z,33
2022-09-06T14:28:39.435Z,33
2022-09-06T14:30:54.489Z,33.2
2022-09-06T14:33:09.300Z,33.4
2022-09-06T14:35:24.229Z,32.9
2022-09-06T14:37:39.312Z,33.4
2022-09-06T14:39:54.552Z,33.3
2022-09-06T14:42:09.256Z,33.3
2022-09-06T14:44:24.157Z,32.9
2022-09-06T14:46:39.399Z,32.9
2022-09-06T14:48:54.048Z,32.8
2022-09-06T14:51:09.148Z,32.9
2022-09-06T14:53:40.071Z,32.7
2022-09-06T14:55:47.760Z,32.9
2022-09-06T14:58:02.609Z,32.7
2022-09-06T15:03:22.076Z,31.8
2022-09-06T15:05:37.189Z,33.6
2022-09-06T15:07:51.659Z,33.2
2022-09-06T15:10:06.476Z,33.4
2022-09-06T15:12:21.444Z,33.2
2022-09-06T15:14:36.271Z,33.6
2022-09-06T15:16:55.520Z,32.4
2022-09-06T15:19:06.016Z,33
2022-09-06T15:21:20.731Z,32.8
2022-09-06T15:23:53.445Z,33.7
2022-09-06T15:26:08.473Z,33.5
2022-09-06T15:28:23.130Z,33.1
2022-09-06T15:30:38.006Z,33.7
2022-09-06T15:32:52.793Z,33.4
2022-09-06T15:35:07.675Z,33.8
2022-09-06T15:37:22.620Z,33.7
2022-09-06T15:39:37.319Z,33.7
2022-09-06T15:41:58.941Z,33.6
2022-09-06T15:44:14.173Z,33.6
2022-09-06T15:46:29.037Z,33.2
2022-09-06T15:48:43.842Z,33.6
2022-09-06T15:51:07.897Z,33.1
2022-09-06T15:53:22.513Z,34.4
2022-09-06T15:55:41.101Z,33.9
2022-09-06T15:57:52.900Z,34.4
2022-09-06T16:00:08.170Z,34.3
2022-09-06T16:02:23.422Z,34.6
2022-09-06T16:04:38.487Z,34.3
2022-09-06T16:07:39.862Z,34.4
2022-09-06T16:09:54.924Z,34.3
2022-09-06T16:12:10.141Z,33.3
2022-09-06T16:14:25.008Z,34.3
2022-09-06T16:16:40.149Z,33.4
2022-09-06T16:18:55.199Z,34.9
2022-09-06T16:21:10.543Z,34
2022-09-06T16:23:25.577Z,34.3
2022-09-06T16:25:39.842Z,33.3
2022-09-06T16:27:55.333Z,34.6
2022-09-06T16:30:10.695Z,34.8
2022-09-06T16:32:25.712Z,34.3
2022-09-06T16:35:00.073Z,34.2
2022-09-06T16:37:15.408Z,34.3
2022-09-06T16:39:30.402Z,33.9
2022-09-06T16:41:55.945Z,33.9
2022-09-06T16:44:08.482Z,33.9
2022-09-06T16:46:23.679Z,34
2022-09-06T16:48:38.542Z,33
2022-09-06T16:50:53.747Z,34.6
2022-09-06T16:53:09.039Z,34.5
2022-09-06T16:55:23.594Z,34.4
2022-09-06T16:57:39.414Z,34.4
2022-09-06T16:59:54.571Z,34.1
2022-09-06T17:02:09.886Z,34.3
2022-09-06T21:03:21.657Z,34.3
2022-09-06T21:05:39.167Z,34.3
2022-09-06T21:07:52.606Z,35.2
2022-09-06T21:10:15.207Z,34.4
2022-09-06T21:12:30.464Z,34.7
2022-09-06T21:14:45.440Z,34.2
2022-09-06T21:16:59.906Z,34.3
2022-09-06T21:19:15.715Z,33.9
2022-09-06T21:21:30.541Z,34.1
2022-09-06T21:23:46.262Z,34.4
2022-09-06T21:26:02.018Z,34.1
2022-09-06T21:28:16.831Z,34.8
2022-09-06T21:30:32.334Z,34.8
2022-09-06T21:35:02.706Z,34.3
2022-09-06T21:37:18.091Z,34.6
2022-09-06T21:39:33.342Z,35.1
2022-09-06T21:41:48.794Z,34.8
2022-09-06T21:44:03.953Z,34.6
2022-09-06T21:46:19.313Z,34.6
2022-09-06T21:48:34.092Z,33.6
2022-09-06T21:50:49.408Z,32.9
2022-09-06T21:53:04.510Z,34.1
2022-09-06T21:55:19.828Z,33.9
2022-09-06T21:57:34.857Z,34.3
2022-09-06T21:59:50.129Z,34.2
2022-09-06T22:02:05.432Z,34.3
2022-09-06T22:04:21.018Z,34.4
2022-09-06T22:06:36.249Z,34.4
2022-09-06T22:08:51.235Z,33.6
2022-09-06T22:11:07.031Z,34.8
2022-09-06T22:13:21.854Z,34.4
2022-09-06T22:15:37.373Z,34.4
2022-09-06T22:17:51.991Z,34.3
2022-09-06T22:20:07.710Z,34.1
2022-09-06T22:22:23.113Z,34.3
2022-09-06T22:24:38.141Z,34.1
2022-09-06T22:26:53.388Z,33
2022-09-06T22:31:29.544Z,34.1
2022-09-06T22:33:44.498Z,34.2
2022-09-06T22:35:59.774Z,34.1
2022-09-06T22:38:14.474Z,33.2
